Bagley, MN

4:54 AM CDT on August 28, 2014 (GMT -0500)
Park Rapids Municipal | Change Station
CLOSE
Current Station
Airport
Location: Park Rapids,
Elevation: 1440 ft
Nearby Weather Stations

Elev 1440 ft 46.90 °N, 95.07 °W | Updated 1 hour ago

Clear
Clear
58 °F
Feels Like 58 °F
N
8
Wind Variable Wind from SE

Today
High -- | Low -- °F
--% Chance of Precip.
Yesterday
High -- | Low -- °F
Precip. -- in
6:34 AM 8:09 PM
Waxing Crescent, 7% visible
Pressure 30.08 in
Visibility 10.0 miles
Clouds Clear
Dew Point 55 °F
Humidity 90%
Rainfall 0.00 in
Snow Depth Not available.
UV 0 out of 12
Pollen 9.30 out of 12
Air Quality Not available.
Flu Activity Not available.
METAR KPKD 280853Z AUTO 14007KT 10SM CLR 14/13 A3008 RMK AO2 SLP185 T01440128 58010 TSNO

More Conditions Fewer Conditions

Pressure 30.08 in
Visibility 10.0 miles
Clouds Clear
Dew Point 55 °F
Humidity 90%
Rainfall 0.00 in
Snow Depth Not available.
UV 0 out of 12
Pollen 9.30 out of 12
Air Quality Not available.
Flu Activity Not available.
METAR KPKD 280853Z AUTO 14007KT 10SM CLR 14/13 A3008 RMK AO2 SLP185 T01440128 58010 TSNO

More Conditions Fewer Conditions

10-Day Weather Forecast

Almanac

Astronomy

Aug. 28, 2014 Rise Set
Actual Time 6:34 AM CDT 8:09 PM CDT
Civil Twilight 6:02 AM CDT 8:41 PM CDT
Nautical Twilight 5:23 AM CDT 9:20 PM CDT
Astronomical Twilight 4:40 AM CDT 10:03 PM CDT
Moon 9:43 AM CDT 9:17 PM CDT
Length of Visible Light 14h 39m
Length of Day
13h 34m
Tomorrow will be 3m 17s shorter.
Waxing Crescent, 7% of the Moon is Illuminated
Today
Waxing Crescent
Sep 2
First Quarter
Sep 8
Full
Sep 15
Last Quarter
Sep 24
New

Today's Extremes

State Highs State Lows

Community

WunderPhotos

Upload Photos

1,747,918 photos uploaded!

Nearby

Snow Depth

Station Depth Elevation
No new snow has been reported.

Earthquake Activity

City Distance Mag. Time & Date
No recent earthquake activity has been reported nearby.
Minimum magnitude displayed is 2.5.

Coastal Water Temperatures

Place Temperature
No Stations Reporting

Nearby Weather Stations